createdAt,value
2019-03-26T00:01:45.681Z,19.27
2019-03-26T00:06:49.253Z,19.12
2019-03-26T00:11:52.808Z,19.03
2019-03-26T00:16:56.390Z,18.89
2019-03-26T00:21:59.982Z,18.80
2019-03-26T00:27:03.514Z,18.69
2019-03-26T00:32:07.096Z,18.63
2019-03-26T00:37:10.676Z,18.54
2019-03-26T00:42:14.229Z,18.67
2019-03-26T00:47:17.804Z,19.52
2019-03-26T00:52:21.341Z,20.54
2019-03-26T00:57:24.886Z,21.36
2019-03-26T01:02:28.505Z,21.90
2019-03-26T01:07:32.087Z,22.35
2019-03-26T01:12:35.742Z,22.66
2019-03-26T01:17:39.306Z,22.65
2019-03-26T01:22:42.880Z,22.47
2019-03-26T01:27:46.427Z,22.26
2019-03-26T01:32:49.997Z,21.95
2019-03-26T01:37:53.563Z,21.84
2019-03-26T01:42:57.371Z,21.59
2019-03-26T01:48:00.894Z,21.25
2019-03-26T01:53:05.288Z,21.04
2019-03-26T01:58:08.798Z,20.59
2019-03-26T02:03:12.376Z,20.12
2019-03-26T02:08:15.901Z,19.78
2019-03-26T02:13:19.491Z,19.48
2019-03-26T02:18:23.019Z,19.30
2019-03-26T02:23:26.594Z,19.82
2019-03-26T02:28:30.154Z,20.64
2019-03-26T02:33:33.754Z,21.32
2019-03-26T02:38:37.307Z,21.72
2019-03-26T02:43:40.878Z,21.89
2019-03-26T02:48:44.482Z,21.79
2019-03-26T02:53:48.012Z,21.93
2019-03-26T02:58:51.611Z,21.71
2019-03-26T03:03:55.160Z,21.61
2019-03-26T03:08:58.738Z,21.38
2019-03-26T03:14:02.270Z,21.25
2019-03-26T03:19:05.836Z,21.06
2019-03-26T03:24:09.367Z,20.73
2019-03-26T03:29:12.974Z,20.54
2019-03-26T03:34:16.725Z,20.12
2019-03-26T03:39:20.471Z,19.86
2019-03-26T03:44:24.030Z,20.01
2019-03-26T03:49:27.600Z,20.65
2019-03-26T03:54:31.137Z,21.18
2019-03-26T03:59:34.697Z,21.56
2019-03-26T04:04:38.258Z,22.01
2019-03-26T04:09:41.853Z,22.55
2019-03-26T04:14:45.404Z,22.51
2019-03-26T04:19:49.107Z,22.25
2019-03-26T04:24:52.608Z,22.09
2019-03-26T04:29:56.190Z,21.78
2019-03-26T04:34:59.735Z,21.62
2019-03-26T04:40:03.317Z,21.46
2019-03-26T04:45:06.844Z,21.34
2019-03-26T04:50:10.453Z,21.11
2019-03-26T04:55:13.980Z,20.99
2019-03-26T05:00:17.549Z,20.79
2019-03-26T05:05:21.082Z,20.53
2019-03-26T05:10:24.680Z,20.31
2019-03-26T05:15:28.226Z,20.08
2019-03-26T05:20:31.811Z,19.87
2019-03-26T05:25:35.376Z,19.61
2019-03-26T05:30:38.932Z,19.84
2019-03-26T05:35:42.498Z,20.44
2019-03-26T05:40:46.050Z,20.90
2019-03-26T05:45:49.672Z,21.60
2019-03-26T05:50:53.225Z,22.05
2019-03-26T05:55:56.816Z,22.49
2019-03-26T06:01:00.404Z,22.64
2019-03-26T06:06:04.924Z,22.88
2019-03-26T06:11:08.510Z,22.70
2019-03-26T06:16:12.085Z,22.69
2019-03-26T06:21:15.644Z,22.46
2019-03-26T06:26:19.272Z,22.19
2019-03-26T06:31:22.816Z,22.20
2019-03-26T06:36:26.358Z,21.96
2019-03-26T06:41:29.935Z,21.83
2019-03-26T06:46:33.523Z,21.64
2019-03-26T06:51:37.048Z,21.46
2019-03-26T06:56:40.650Z,21.37
2019-03-26T07:01:44.186Z,21.10
2019-03-26T07:06:47.789Z,21.14
2019-03-26T07:11:51.318Z,21.42
2019-03-26T07:16:54.863Z,21.53
2019-03-26T07:21:58.435Z,21.75
2019-03-26T07:27:01.977Z,21.75
2019-03-26T07:32:05.580Z,21.84
2019-03-26T07:37:09.158Z,22.29
2019-03-26T07:42:12.700Z,22.25
2019-03-26T07:47:16.284Z,22.90
2019-03-26T07:52:19.856Z,22.70
2019-03-26T07:57:23.459Z,23.09
2019-03-26T08:02:27.014Z,23.19
2019-03-26T08:07:30.580Z,23.19
2019-03-26T08:12:35.174Z,23.33
2019-03-26T08:17:38.737Z,23.30
2019-03-26T08:22:42.289Z,23.18
2019-03-26T08:27:45.816Z,22.96
2019-03-26T08:32:49.396Z,22.96
2019-03-26T08:37:52.953Z,22.85
2019-03-26T08:42:56.557Z,22.75
2019-03-26T08:48:00.116Z,22.52
2019-03-26T08:53:03.721Z,22.26
2019-03-26T08:58:07.246Z,22.16
2019-03-26T09:03:10.818Z,21.99
2019-03-26T09:08:24.812Z,21.89
2019-03-26T09:13:19.676Z,21.97
2019-03-26T09:18:23.209Z,21.72
2019-03-26T09:23:26.794Z,21.60
2019-03-26T09:28:30.351Z,21.50
2019-03-26T09:33:33.930Z,21.54
2019-03-26T09:38:39.255Z,21.49
2019-03-26T09:43:42.804Z,21.37
2019-03-26T09:48:46.359Z,21.37
2019-03-26T09:53:49.895Z,21.43
2019-03-26T09:58:53.505Z,21.35
2019-03-26T10:03:57.033Z,21.33
2019-03-26T10:09:00.606Z,21.62
2019-03-26T10:14:05.214Z,21.82
2019-03-26T10:19:08.762Z,21.93
2019-03-26T10:24:12.343Z,22.28
2019-03-26T10:29:29.565Z,22.68
2019-03-26T10:34:21.228Z,22.67
2019-03-26T10:39:24.753Z,22.64
2019-03-26T10:44:28.341Z,22.44
2019-03-26T10:49:31.850Z,22.37
2019-03-26T10:54:35.411Z,22.15
2019-03-26T10:59:38.934Z,22.08
2019-03-26T11:04:42.500Z,22.01
2019-03-26T11:09:46.098Z,21.90
2019-03-26T11:14:49.628Z,21.71
2019-03-26T11:19:53.233Z,21.58
2019-03-26T11:24:56.758Z,21.46
2019-03-26T11:30:00.406Z,21.34
2019-03-26T11:35:06.032Z,21.17
2019-03-26T11:40:09.561Z,21.25
2019-03-26T11:45:13.129Z,21.00
2019-03-26T11:50:16.682Z,21.00
2019-03-26T11:55:21.829Z,20.97
2019-03-26T12:00:27.289Z,21.23
2019-03-26T12:05:30.849Z,21.42
2019-03-26T12:10:34.444Z,21.88
2019-03-26T12:15:37.997Z,22.33
2019-03-26T12:20:41.570Z,22.66
2019-03-26T12:25:45.117Z,22.84
2019-03-26T12:30:48.691Z,22.81
2019-03-26T12:35:52.287Z,22.73
2019-03-26T12:40:55.817Z,22.40
2019-03-26T12:46:01.821Z,22.13
2019-03-26T12:51:04.822Z,22.09
2019-03-26T12:56:08.375Z,21.92
2019-03-26T13:01:11.954Z,21.84
2019-03-26T13:06:15.570Z,21.39
2019-03-26T13:11:19.133Z,21.29
2019-03-26T13:16:22.718Z,21.04
2019-03-26T13:21:26.286Z,20.96
2019-03-26T13:26:29.818Z,20.82
2019-03-26T13:31:33.370Z,20.89
2019-03-26T13:36:36.976Z,20.74
2019-03-26T13:41:40.500Z,20.60
2019-03-26T13:46:44.075Z,20.63
2019-03-26T13:51:47.655Z,20.59
2019-03-26T13:56:51.194Z,20.96
2019-03-26T14:01:54.747Z,21.37
2019-03-26T14:06:58.312Z,21.88
2019-03-26T14:12:01.882Z,22.43
2019-03-26T14:17:05.829Z,22.69
2019-03-26T14:27:12.155Z,22.93
2019-03-26T14:32:15.714Z,22.84
2019-03-26T14:37:19.295Z,22.67
2019-03-26T14:42:22.879Z,22.31
2019-03-26T14:47:26.463Z,22.16
2019-03-26T14:52:30.017Z,21.97
2019-03-26T14:57:33.605Z,21.73
2019-03-26T15:02:37.228Z,21.47
2019-03-26T15:07:40.902Z,21.21
2019-03-26T15:12:44.459Z,21.08
2019-03-26T15:17:48.079Z,20.96
2019-03-26T15:22:51.697Z,20.77
2019-03-26T15:27:55.255Z,20.71
2019-03-26T15:32:58.941Z,20.70
2019-03-26T15:38:02.557Z,20.90
2019-03-26T15:43:06.097Z,21.32
2019-03-26T15:48:09.660Z,21.72
2019-03-26T15:53:13.746Z,21.98
2019-03-26T15:58:17.347Z,22.27
2019-03-26T16:03:22.370Z,22.71
2019-03-26T16:08:26.422Z,22.82
2019-03-26T16:13:30.040Z,22.53
2019-03-26T16:18:33.831Z,22.22
2019-03-26T16:23:38.065Z,22.14
2019-03-26T16:28:41.952Z,21.83
2019-03-26T16:33:46.035Z,21.44
2019-03-26T16:38:50.341Z,21.44
2019-03-26T16:43:54.170Z,21.37
2019-03-26T16:48:58.153Z,21.25
2019-03-26T16:54:02.160Z,21.10
2019-03-26T16:59:05.971Z,20.90
2019-03-26T17:04:10.035Z,20.72
2019-03-26T17:09:14.321Z,20.90
2019-03-26T17:14:18.483Z,20.97
2019-03-26T17:19:22.281Z,21.16
2019-03-26T17:24:26.542Z,21.91
2019-03-26T17:29:32.634Z,22.25
2019-03-26T17:34:38.572Z,22.55
2019-03-26T17:39:42.720Z,23.02
2019-03-26T17:44:46.362Z,22.79
2019-03-26T17:49:50.584Z,22.70
2019-03-26T17:54:55.029Z,22.53
2019-03-26T17:59:59.464Z,22.26
2019-03-26T18:05:04.144Z,21.99
2019-03-26T18:10:08.196Z,21.73
2019-03-26T18:15:11.961Z,21.60
2019-03-26T18:20:15.517Z,21.59
2019-03-26T18:25:19.202Z,20.98
2019-03-26T18:30:25.237Z,20.58
2019-03-26T18:35:29.105Z,20.36
2019-03-26T18:40:32.669Z,20.14
2019-03-26T18:45:41.472Z,20.10
2019-03-26T18:50:45.081Z,20.43
2019-03-26T18:55:48.703Z,21.12
2019-03-26T19:00:52.258Z,21.98
2019-03-26T19:05:55.835Z,22.20
2019-03-26T19:11:00.222Z,22.13
2019-03-26T19:16:03.845Z,21.97
2019-03-26T19:21:07.418Z,21.92
2019-03-26T19:26:11.039Z,21.79
2019-03-26T19:31:14.536Z,21.48
2019-03-26T19:36:18.130Z,21.17
2019-03-26T19:41:21.796Z,20.80
2019-03-26T19:46:25.410Z,20.44
2019-03-26T19:51:28.963Z,20.38
2019-03-26T19:56:32.525Z,19.99
2019-03-26T20:01:36.108Z,19.87
2019-03-26T20:06:39.656Z,19.74
2019-03-26T20:11:43.207Z,19.99
2019-03-26T20:16:46.789Z,20.62
2019-03-26T20:21:50.404Z,21.50
2019-03-26T20:26:54.058Z,21.98
2019-03-26T20:31:57.779Z,22.33
2019-03-26T20:37:01.393Z,22.72
2019-03-26T20:42:04.932Z,22.63
2019-03-26T20:47:08.638Z,23.15
2019-03-26T20:52:12.168Z,22.18
2019-03-26T20:57:15.779Z,22.31
2019-03-26T21:02:19.351Z,21.44
2019-03-26T21:07:22.943Z,21.03
2019-03-26T21:12:26.485Z,20.94
2019-03-26T21:17:30.174Z,20.47
2019-03-26T21:22:35.730Z,20.24
2019-03-26T21:27:40.138Z,20.10
2019-03-26T21:32:43.777Z,19.91
2019-03-26T21:37:47.370Z,19.86
2019-03-26T21:42:51.122Z,19.78
2019-03-26T21:47:56.017Z,19.97
2019-03-26T21:52:59.630Z,21.38
2019-03-26T21:58:03.892Z,21.98
2019-03-26T22:03:08.923Z,22.60
2019-03-26T22:08:12.499Z,22.48
2019-03-26T22:13:16.078Z,22.44
2019-03-26T22:18:19.612Z,22.23
2019-03-26T22:23:23.183Z,22.10
2019-03-26T22:28:26.789Z,21.86
2019-03-26T22:33:30.335Z,21.72
2019-03-26T22:38:34.272Z,21.55
2019-03-26T22:43:37.803Z,21.26
2019-03-26T22:48:41.380Z,20.99
2019-03-26T22:53:44.926Z,20.45
2019-03-26T22:58:48.505Z,20.05
2019-03-26T23:03:52.185Z,19.75
2019-03-26T23:08:55.942Z,19.59
2019-03-26T23:13:59.621Z,19.46
2019-03-26T23:19:03.168Z,19.25
2019-03-26T23:24:07.326Z,19.28
2019-03-26T23:29:11.288Z,20.21
2019-03-26T23:34:15.685Z,21.10
2019-03-26T23:39:19.331Z,21.70
2019-03-26T23:44:26.000Z,22.25
2019-03-26T23:49:29.104Z,22.40
2019-03-26T23:54:32.700Z,22.75
2019-03-26T23:59:36.236Z,23.14
